Time;durP1;ratioP1;P1;durP2;ratioP2;P2;SDS_P1;SDS_P2;PMS_P1;PMS_P2;Temp;Humidity;BMP_temperature;BMP_pressure;BME280_temperature;BME280_humidity;BME280_pressure;Samples;Min_cycle;Max_cycle;Signal;HPM_P1;HPM_P2
2021/01/24 00:00:20;;;;;;;9.90;7.27;;;;;;;2.82;86.95;98679.61;1690408;83;21212;-59
2021/01/24 00:02:47;;;;;;;10.53;7.67;;;;;;;2.81;86.96;98673.89;1693996;82;21184;-58
2021/01/24 00:05:14;;;;;;;7.77;5.93;;;;;;;2.81;86.92;98684.52;1690616;82;21395;-55
2021/01/24 00:07:41;;;;;;;10.03;6.40;;;;;;;2.82;86.87;98676.08;1659604;84;21237;-54
2021/01/24 00:10:12;;;;;;;10.30;7.33;;;;;;;2.82;86.90;98672.09;1627351;86;21243;-57
2021/01/24 00:12:40;;;;;;;8.67;6.27;;;;;;;2.81;86.94;98670.36;1697360;82;21212;-55
2021/01/24 00:15:08;;;;;;;7.43;5.40;;;;;;;2.83;86.99;98669.39;1693380;82;21199;-55
2021/01/24 00:17:36;;;;;;;7.57;6.53;;;;;;;2.85;87.01;98666.69;1695885;82;21181;-56
2021/01/24 00:20:04;;;;;;;8.60;7.03;;;;;;;2.88;87.03;98670.13;1659991;84;21166;-58
2021/01/24 00:22:32;;;;;;;11.07;8.00;;;;;;;2.89;87.01;98662.53;1660679;85;21160;-57
2021/01/24 00:24:59;;;;;;;7.90;5.73;;;;;;;2.88;86.96;98660.82;1693081;82;21532;-56
2021/01/24 00:27:26;;;;;;;7.93;6.03;;;;;;;2.89;86.94;98652.39;1693024;82;21187;-56
2021/01/24 00:29:53;;;;;;;10.63;7.10;;;;;;;2.90;86.89;98649.66;1695628;82;22992;-55
2021/01/24 00:32:20;;;;;;;8.43;6.33;;;;;;;2.91;86.90;98649.19;1693133;82;21764;-55
2021/01/24 00:34:48;;;;;;;6.67;5.43;;;;;;;2.92;86.95;98638.97;1692331;82;21179;-57
2021/01/24 00:37:15;;;;;;;5.20;4.60;;;;;;;2.93;86.96;98633.61;1692581;82;21203;-54
2021/01/24 00:39:42;;;;;;;7.87;5.60;;;;;;;2.96;86.96;98636.17;1691850;82;21215;-56
2021/01/24 00:42:09;;;;;;;8.77;6.47;;;;;;;2.97;86.95;98635.25;1694818;82;23026;-55
2021/01/24 00:44:37;;;;;;;9.93;7.17;;;;;;;2.96;86.96;98632.64;1687463;84;21543;-54
2021/01/24 00:47:05;;;;;;;9.73;7.00;;;;;;;2.96;86.91;98630.85;1686259;84;21775;-59
2021/01/24 00:49:33;;;;;;;8.43;6.07;;;;;;;2.95;86.92;98620.27;1684237;83;21927;-58
2021/01/24 00:52:00;;;;;;;11.37;7.13;;;;;;;2.98;86.88;98628.98;1686331;84;21841;-59
2021/01/24 00:54:28;;;;;;;7.13;5.07;;;;;;;3.00;86.88;98624.95;1685212;84;22742;-58
2021/01/24 00:56:55;;;;;;;7.00;4.77;;;;;;;3.01;86.89;98622.23;1637286;86;21154;-58
2021/01/24 00:59:22;;;;;;;4.97;3.87;;;;;;;3.04;86.92;98614.63;1645298;86;22360;-59
2021/01/24 01:01:50;;;;;;;6.03;5.03;;;;;;;3.07;86.95;98605.65;1642424;86;21232;-54
2021/01/24 01:04:18;;;;;;;5.90;4.80;;;;;;;3.10;86.99;98602.89;1686291;84;21646;-56
2021/01/24 01:06:46;;;;;;;6.47;5.33;;;;;;;3.10;86.94;98601.09;1685192;84;21213;-55
2021/01/24 01:09:13;;;;;;;5.30;4.30;;;;;;;3.10;86.96;98605.55;1685592;84;21199;-55
2021/01/24 01:11:40;;;;;;;5.03;3.80;;;;;;;3.11;86.94;98609.95;1683267;84;21542;-55
2021/01/24 01:14:08;;;;;;;3.73;3.37;;;;;;;3.11;86.92;98608.62;1680670;84;21211;-57
2021/01/24 01:16:35;;;;;;;6.03;3.83;;;;;;;3.12;86.95;98615.67;1688918;84;21196;-54
2021/01/24 01:19:02;;;;;;;5.37;3.80;;;;;;;3.13;86.97;98610.77;1688140;84;21414;-57
2021/01/24 01:21:30;;;;;;;4.10;3.33;;;;;;;3.16;86.96;98606.64;1683773;84;21221;-58
2021/01/24 01:23:57;;;;;;;6.77;4.17;;;;;;;3.18;86.98;98613.65;1684432;84;21223;-54
2021/01/24 01:26:24;;;;;;;4.30;3.90;;;;;;;3.22;86.98;98611.77;1683391;84;21559;-55
2021/01/24 01:28:52;;;;;;;5.50;3.63;;;;;;;3.23;86.99;98603.70;1688403;84;21229;-55
2021/01/24 01:31:19;;;;;;;6.90;5.17;;;;;;;3.26;87.00;98606.72;1685834;84;21285;-55
2021/01/24 01:33:46;;;;;;;4.60;3.70;;;;;;;3.25;87.01;98612.50;1623334;86;21651;-54
2021/01/24 01:36:14;;;;;;;3.87;3.27;;;;;;;3.27;86.96;98612.45;1683480;84;21199;-55
2021/01/24 01:38:43;;;;;;;3.80;2.80;;;;;;;3.28;86.94;98608.41;1642964;86;21259;-57
2021/01/24 01:41:10;;;;;;;4.97;3.60;;;;;;;3.29;86.96;98605.29;1617405;87;22890;-56
2021/01/24 01:43:37;;;;;;;3.60;2.43;;;;;;;3.29;87.03;98602.17;1682681;84;21222;-55
2021/01/24 01:46:04;;;;;;;4.57;3.50;;;;;;;3.31;87.04;98596.34;1688524;84;21212;-56
2021/01/24 01:48:32;;;;;;;4.37;3.30;;;;;;;3.34;87.01;98604.18;1622821;87;21167;-55
2021/01/24 01:50:59;;;;;;;3.73;3.03;;;;;;;3.36;87.06;98600.14;1642758;86;21140;-55
2021/01/24 01:53:26;;;;;;;6.73;4.07;;;;;;;3.39;87.07;98596.05;1625518;86;21546;-56
2021/01/24 01:55:54;;;;;;;5.30;4.07;;;;;;;3.38;87.09;98587.20;1646935;85;21236;-56
2021/01/24 01:58:21;;;;;;;3.80;2.13;;;;;;;3.40;87.08;98577.83;1643952;86;21251;-58
2021/01/24 02:00:49;;;;;;;4.03;2.87;;;;;;;3.41;87.08;98578.20;1637671;86;21192;-57
2021/01/24 02:03:51;;;;;;;2.30;2.10;;;;;;;3.42;87.08;98577.29;1687416;84;22259;-56
2021/01/24 02:06:26;;;;;;;2.90;2.67;;;;;;;3.43;87.12;98570.58;1685908;84;21570;-55
2021/01/24 02:09:12;;;;;;;;;;;;;;;3.46;87.19;98564.75;1685021;84;21655;-55
2021/01/24 02:12:01;;;;;;;;;;;;;;;3.49;87.26;98564.64;1688144;84;20299;-57
2021/01/24 02:14:35;;;;;;;2.87;2.23;;;;;;;3.51;87.29;98564.09;1686980;84;20283;-56
2021/01/24 02:17:05;;;;;;;2.73;2.30;;;;;;;3.52;87.36;98566.70;1687152;84;21148;-58
2021/01/24 02:20:02;;;;;;;3.63;2.50;;;;;;;3.56;87.37;98566.13;1689234;84;21164;-55
2021/01/24 02:22:32;;;;;;;3.33;2.40;;;;;;;3.58;87.34;98566.92;1661347;85;21270;-56
2021/01/24 02:25:44;;;;;;;6.30;4.27;;;;;;;3.57;87.33;98572.73;1691161;84;21145;-58
2021/01/24 02:28:55;;;;;;;3.33;2.33;;;;;;;3.56;87.40;98561.69;1689515;84;21523;-58
2021/01/24 02:31:25;;;;;;;1.90;1.70;;;;;;;3.58;87.40;98556.27;1685671;84;21152;-56
2021/01/24 02:33:52;;;;;;;2.63;1.73;;;;;;;3.57;87.38;98560.76;1689210;83;21152;-58
2021/01/24 02:36:20;;;;;;;2.10;1.80;;;;;;;3.59;87.43;98549.56;1688659;84;22046;-56
2021/01/24 02:38:47;;;;;;;2.67;2.03;;;;;;;3.60;87.49;98543.32;1671681;84;21132;-56
2021/01/24 02:41:14;;;;;;;1.80;1.70;;;;;;;3.63;87.50;98554.32;1687114;84;21283;-57
2021/01/24 02:43:44;;;;;;;2.20;1.80;;;;;;;3.66;87.52;98548.86;1687333;84;21136;-56
2021/01/24 02:46:13;;;;;;;2.87;2.00;;;;;;;3.69;87.54;98548.75;1668634;84;21200;-57
2021/01/24 02:48:43;;;;;;;2.60;2.30;;;;;;;3.72;87.54;98543.31;1679560;84;21572;-59
2021/01/24 02:51:12;;;;;;;4.37;2.97;;;;;;;3.75;87.59;98547.16;1668350;84;21180;-59
2021/01/24 02:53:40;;;;;;;3.60;3.10;;;;;;;3.78;87.56;98550.58;1689480;84;21164;-59
2021/01/24 02:56:07;;;;;;;2.30;1.90;;;;;;;3.79;87.51;98550.12;1686426;84;21215;-57
2021/01/24 02:58:34;;;;;;;2.60;2.23;;;;;;;3.80;87.47;98544.74;1683886;84;21761;-60
2021/01/24 03:03:43;;;;;;;3.10;2.70;;;;;;;3.85;87.50;98531.23;1787243;77;26701;-61
2021/01/24 03:06:11;;;;;;;4.23;2.80;;;;;;;3.82;87.53;98532.70;1757177;78;21509;-62
2021/01/24 03:08:39;;;;;;;3.27;2.97;;;;;;;3.82;87.54;98532.70;1759306;78;21945;-62
2021/01/24 03:11:08;;;;;;;4.27;3.37;;;;;;;3.83;87.54;98521.59;1766837;78;20996;-61
2021/01/24 03:13:43;;;;;;;2.47;2.27;;;;;;;3.85;87.51;98536.55;1766804;78;22605;-61
2021/01/24 03:16:12;;;;;;;3.13;2.60;;;;;;;3.87;87.53;98521.86;1768041;78;21194;-63
2021/01/24 03:18:42;;;;;;;3.23;2.50;;;;;;;3.87;87.59;98521.39;1767463;78;21199;-63
2021/01/24 03:21:10;;;;;;;2.37;2.13;;;;;;;3.91;87.60;98513.70;1766604;78;21400;-63
2021/01/24 03:23:37;;;;;;;3.63;2.30;;;;;;;3.93;87.60;98518.47;1760542;78;21025;-61
2021/01/24 03:26:05;;;;;;;2.73;2.30;;;;;;;3.97;87.62;98511.23;1735762;78;21624;-63
2021/01/24 03:28:35;;;;;;;3.13;2.70;;;;;;;4.00;87.68;98513.29;1762444;78;21222;-61
2021/01/24 03:31:06;;;;;;;5.03;3.60;;;;;;;4.04;87.62;98511.38;1761140;78;21241;-61
2021/01/24 03:33:36;;;;;;;5.13;4.47;;;;;;;4.03;87.59;98499.86;1762995;78;22226;-63
2021/01/24 03:36:04;;;;;;;4.37;3.97;;;;;;;4.04;87.58;98501.59;1760242;78;22024;-63
2021/01/24 03:38:31;;;;;;;3.37;3.07;;;;;;;4.06;87.57;98498.41;1760194;78;21519;-62
2021/01/24 03:40:58;;;;;;;4.43;3.27;;;;;;;4.07;87.50;98498.82;1767914;78;21194;-63
2021/01/24 03:43:25;;;;;;;2.73;2.47;;;;;;;4.09;87.51;98502.72;1699845;83;21912;-63
2021/01/24 03:45:53;;;;;;;3.53;2.70;;;;;;;4.08;87.52;98503.19;1697870;82;21461;-62
2021/01/24 03:48:21;;;;;;;3.60;2.80;;;;;;;4.12;87.55;98497.28;1698187;82;21542;-62
2021/01/24 03:50:48;;;;;;;3.30;2.70;;;;;;;4.14;87.54;98496.76;1700702;82;21259;-61
2021/01/24 03:53:15;;;;;;;3.83;2.97;;;;;;;4.15;87.55;98502.03;1700488;82;21228;-62
2021/01/24 03:55:43;;;;;;;3.63;2.63;;;;;;;4.17;87.59;98501.47;1702022;82;21204;-64
2021/01/24 03:58:10;;;;;;;2.73;2.53;;;;;;;4.17;87.61;98493.94;1696577;82;22319;-63
2021/01/24 04:00:37;;;;;;;4.97;3.90;;;;;;;4.19;87.67;98488.09;1697378;82;21242;-62
2021/01/24 04:03:05;;;;;;;6.27;3.07;;;;;;;4.18;87.69;98489.89;1698675;82;21616;-62
2021/01/24 04:05:33;;;;;;;2.27;2.00;;;;;;;4.18;87.74;98481.91;1697540;83;21239;-61
2021/01/24 04:08:00;;;;;;;3.33;2.80;;;;;;;4.19;87.74;98478.31;1704927;83;21234;-61
2021/01/24 04:10:27;;;;;;;2.70;2.13;;;;;;;4.21;87.81;98482.24;1696990;83;21230;-64
2021/01/24 04:12:55;;;;;;;4.97;3.63;;;;;;;4.23;87.82;98484.84;1697524;83;21634;-63
2021/01/24 04:15:22;;;;;;;3.50;3.20;;;;;;;4.25;87.83;98479.86;1692376;82;21211;-63
2021/01/24 04:17:49;;;;;;;9.57;4.77;;;;;;;4.26;87.86;98476.70;1697756;83;21246;-63
2021/01/24 04:20:17;;;;;;;11.93;6.03;;;;;;;4.30;87.87;98477.86;1696029;83;21218;-62
2021/01/24 04:22:44;;;;;;;13.63;5.87;;;;;;;4.33;87.87;98479.53;1694993;82;21254;-61
2021/01/24 04:25:13;;;;;;;12.83;6.10;;;;;;;4.34;87.86;98476.77;1696927;83;21243;-61
2021/01/24 04:27:41;;;;;;;10.90;5.20;;;;;;;4.35;87.85;98477.64;1698079;83;21210;-61
2021/01/24 04:30:10;;;;;;;7.93;3.80;;;;;;;4.35;87.81;98458.99;1695163;83;21206;-61
2021/01/24 04:32:37;;;;;;;4.80;3.23;;;;;;;4.35;87.81;98462.52;1696938;82;21389;-63
2021/01/24 04:35:05;;;;;;;5.60;3.43;;;;;;;4.36;87.84;98468.26;1699766;83;21213;-63
2021/01/24 04:37:33;;;;;;;4.83;3.83;;;;;;;4.39;87.88;98464.61;1695050;83;21216;-62
2021/01/24 04:40:01;;;;;;;4.60;3.73;;;;;;;4.40;87.89;98469.00;1695305;83;21230;-62
2021/01/24 04:42:28;;;;;;;3.57;3.27;;;;;;;4.42;87.88;98462.65;1697289;83;21226;-61
2021/01/24 04:44:55;;;;;;;4.23;3.07;;;;;;;4.45;87.90;98461.20;1684298;83;21128;-62
2021/01/24 04:47:23;;;;;;;2.60;2.40;;;;;;;4.48;87.90;98454.41;1701408;83;21392;-61
2021/01/24 04:49:50;;;;;;;3.33;2.97;;;;;;;4.50;87.88;98459.22;1670320;83;21175;-63
2021/01/24 04:52:17;;;;;;;4.20;3.70;;;;;;;4.53;87.88;98456.86;1699188;83;21291;-63
2021/01/24 04:54:46;;;;;;;5.63;3.63;;;;;;;4.53;87.92;98452.86;1701475;83;21219;-61
2021/01/24 04:57:13;;;;;;;3.53;3.23;;;;;;;4.53;87.93;98451.53;1699532;83;21618;-63
2021/01/24 04:59:41;;;;;;;3.77;2.70;;;;;;;4.53;87.90;98443.06;1696346;83;22291;-64
2021/01/24 05:02:09;;;;;;;3.50;2.63;;;;;;;4.54;87.86;98448.80;1696682;83;21669;-62
2021/01/24 05:04:37;;;;;;;2.73;2.53;;;;;;;4.53;87.89;98441.73;1724314;80;21188;-62
2021/01/24 05:07:04;;;;;;;2.87;2.33;;;;;;;4.55;87.95;98449.67;1723148;82;21092;-61
2021/01/24 05:09:33;;;;;;;2.23;2.03;;;;;;;4.56;87.95;98452.27;1722997;82;21105;-63
2021/01/24 05:12:00;;;;;;;4.07;2.43;;;;;;;4.59;88.00;98447.28;1723959;82;21379;-63
2021/01/24 05:14:27;;;;;;;3.50;3.00;;;;;;;4.62;88.02;98447.59;1723204;80;21156;-63
2021/01/24 05:16:55;;;;;;;3.00;2.80;;;;;;;4.65;88.03;98441.66;1724816;82;21112;-62
2021/01/24 05:19:23;;;;;;;2.80;2.53;;;;;;;4.67;88.02;98445.13;1723009;80;21503;-61
2021/01/24 05:21:50;;;;;;;5.23;3.00;;;;;;;4.70;88.02;98444.98;1719797;82;21108;-62
2021/01/24 05:24:19;;;;;;;4.20;3.70;;;;;;;4.71;87.95;98445.84;1725964;82;21603;-62
2021/01/24 05:26:49;;;;;;;4.27;3.83;;;;;;;4.71;87.93;98439.18;1725511;80;21164;-62
2021/01/24 05:29:25;;;;;;;3.97;2.83;;;;;;;4.71;87.94;98444.51;1722493;81;21121;-63
2021/01/24 05:31:54;;;;;;;3.10;2.90;;;;;;;4.70;87.90;98436.98;1723234;82;21144;-63
2021/01/24 05:34:25;;;;;;;2.87;2.43;;;;;;;4.69;87.87;98439.24;1723366;81;21093;-62
2021/01/24 05:36:52;;;;;;;2.27;1.93;;;;;;;4.70;87.90;98442.31;1722085;82;21450;-63
2021/01/24 05:39:20;;;;;;;3.10;2.70;;;;;;;4.71;87.94;98437.84;1722630;82;21145;-63
2021/01/24 05:41:49;;;;;;;3.20;3.00;;;;;;;4.70;87.94;98440.98;1724181;82;21175;-61
2021/01/24 05:44:17;;;;;;;3.33;3.03;;;;;;;4.72;87.98;98438.25;1719603;82;23042;-61
2021/01/24 05:46:44;;;;;;;2.90;2.60;;;;;;;4.75;88.00;98438.12;1721660;80;21482;-61
2021/01/24 05:49:14;;;;;;;2.67;2.37;;;;;;;4.76;88.01;98436.72;1719820;82;22139;-63
2021/01/24 05:51:41;;;;;;;3.63;3.27;;;;;;;4.78;87.99;98432.16;1720758;82;21582;-61
2021/01/24 05:54:09;;;;;;;3.43;2.73;;;;;;;4.81;87.94;98428.03;1722161;82;21195;-62
2021/01/24 05:56:36;;;;;;;4.40;3.50;;;;;;;4.85;87.93;98432.73;1720601;82;21215;-62
2021/01/24 05:59:03;;;;;;;3.60;3.30;;;;;;;4.86;87.91;98426.01;1721122;80;21360;-63
2021/01/24 06:01:31;;;;;;;4.23;3.90;;;;;;;4.87;87.84;98421.54;1724414;81;21282;-62
2021/01/24 06:03:59;;;;;;;6.23;3.97;;;;;;;4.84;87.81;98427.91;1735248;80;21202;-63
2021/01/24 06:06:26;;;;;;;4.10;3.77;;;;;;;4.81;87.80;98424.50;1740057;80;21204;-64
2021/01/24 06:08:54;;;;;;;4.07;3.47;;;;;;;4.80;87.76;98410.30;1741955;80;21215;-62
2021/01/24 06:11:21;;;;;;;4.80;3.93;;;;;;;4.80;87.82;98420.10;1738188;80;21223;-64
2021/01/24 06:13:54;;;;;;;3.13;2.83;;;;;;;4.79;87.87;98411.70;1738593;80;21741;-62
2021/01/24 06:16:35;;;;;;;4.20;3.07;;;;;;;4.81;87.91;98401.84;1739348;80;21244;-62
2021/01/24 06:19:03;;;;;;;4.13;2.83;;;;;;;4.82;87.92;98396.44;1738588;80;21220;-62
2021/01/24 06:21:38;;;;;;;4.33;3.93;;;;;;;4.85;87.89;98400.28;1741447;80;21167;-63
2021/01/24 06:24:17;;;;;;;6.78;4.62;;;;;;;4.87;87.89;98405.55;1744318;80;21089;-64
2021/01/24 06:26:46;;;;;;;5.13;4.63;;;;;;;4.89;87.86;98407.68;1740109;80;21373;-65
2021/01/24 06:29:13;;;;;;;8.07;5.80;;;;;;;4.88;87.84;98413.48;1687482;83;21148;-65
2021/01/24 06:31:48;;;;;;;7.57;6.77;;;;;;;4.86;87.84;98410.01;1681885;83;21301;-64
2021/01/24 06:34:16;;;;;;;6.53;5.72;;;;;;;4.86;87.83;98408.67;1746807;80;21611;-65
2021/01/24 06:37:13;;;;;;;6.63;5.87;;;;;;;4.88;87.80;98416.14;1742621;80;21277;-64
2021/01/24 06:39:56;;;;;;;7.87;5.33;;;;;;;4.87;87.79;98421.08;1740738;80;21210;-63
2021/01/24 06:42:47;;;;;;;8.57;5.77;;;;;;;4.88;87.88;98417.48;1739572;80;21196;-64
2021/01/24 06:45:26;;;;;;;5.97;5.17;;;;;;;4.92;87.90;98411.55;1738438;80;21618;-64
2021/01/24 06:47:55;;;;;;;7.97;6.37;;;;;;;4.96;87.90;98410.45;1739883;80;21199;-64
2021/01/24 06:50:46;;;;;;;9.37;6.43;;;;;;;4.99;87.91;98412.12;1741905;80;21211;-62
2021/01/24 06:53:23;;;;;;;7.83;5.90;;;;;;;5.02;87.91;98414.16;1744045;80;21210;-63
2021/01/24 06:56:06;;;;;;;9.30;6.67;;;;;;;5.05;87.90;98415.82;1744478;80;21178;-65
2021/01/24 06:58:33;;;;;;;11.80;9.30;;;;;;;5.07;87.87;98424.16;1743349;80;21127;-63
2021/01/24 07:01:25;;;;;;;11.87;9.07;;;;;;;5.10;87.93;98418.69;1744112;80;21108;-63
2021/01/24 07:04:30;;;;;;;13.37;8.73;;;;;;;5.10;87.87;98408.02;1738716;80;21876;-65
2021/01/24 07:07:13;;;;;;;17.32;10.30;;;;;;;5.11;87.85;98404.85;1734922;81;21367;-64
2021/01/24 07:09:42;;;;;;;14.28;9.48;;;;;;;5.13;87.84;98402.98;1735501;80;21339;-63
2021/01/24 07:12:10;;;;;;;14.07;9.00;;;;;;;5.16;87.88;98408.19;1736864;80;21206;-64
2021/01/24 07:14:43;;;;;;;14.37;9.20;;;;;;;5.17;87.88;98411.25;1736904;81;21163;-63
2021/01/24 07:17:13;;;;;;;18.40;10.60;;;;;;;5.19;87.89;98416.89;1734771;81;21207;-64
2021/01/24 07:19:47;;;;;;;13.80;9.07;;;;;;;5.22;87.86;98413.22;1735878;81;21199;-64
2021/01/24 07:22:22;;;;;;;16.95;10.30;;;;;;;5.23;87.85;98409.15;1740756;81;21176;-64
2021/01/24 07:24:50;;;;;;;18.77;11.40;;;;;;;5.27;87.81;98411.22;1738420;81;21212;-64
2021/01/24 07:27:45;;;;;;;18.10;11.97;;;;;;;5.28;87.78;98408.45;1734194;81;21986;-65
2021/01/24 07:30:14;;;;;;;20.15;11.15;;;;;;;5.30;87.73;98407.91;1626737;85;21186;-60
2021/01/24 07:32:41;;;;;;;22.97;14.63;;;;;;;5.34;87.70;98412.64;1624161;86;22594;-59
2021/01/24 07:35:10;;;;;;;16.17;13.50;;;;;;;5.36;87.64;98401.91;1639664;85;22402;-60
2021/01/24 07:37:37;;;;;;;27.77;14.87;;;;;;;5.38;87.61;98409.34;1604885;86;21249;-58
2021/01/24 07:40:07;;;;;;;22.17;13.60;;;;;;;5.38;87.57;98405.33;1622380;85;21646;-59
2021/01/24 07:42:34;;;;;;;28.83;14.93;;;;;;;5.38;87.53;98404.00;1640127;84;21202;-58
2021/01/24 07:45:01;;;;;;;26.20;13.80;;;;;;;5.39;87.50;98404.40;1646666;84;21359;-59
2021/01/24 07:47:30;;;;;;;20.20;12.70;;;;;;;5.38;87.51;98398.20;1638486;84;21198;-60
2021/01/24 07:49:57;;;;;;;23.70;13.50;;;;;;;5.39;87.53;98389.25;1652257;84;21262;-60
2021/01/24 07:52:24;;;;;;;21.57;12.23;;;;;;;5.42;87.52;98389.12;1647464;84;21649;-60
2021/01/24 07:54:53;;;;;;;23.93;12.37;;;;;;;5.44;87.52;98385.05;1647857;84;21231;-60
2021/01/24 07:57:21;;;;;;;21.57;10.13;;;;;;;5.46;87.49;98382.67;1626434;84;21180;-61
2021/01/24 07:59:48;;;;;;;22.67;11.80;;;;;;;5.48;87.46;98375.46;1651132;84;21226;-60
2021/01/24 08:02:17;;;;;;;22.97;13.47;;;;;;;5.51;87.50;98377.13;1652153;84;21504;-59
2021/01/24 08:04:44;;;;;;;23.63;12.47;;;;;;;5.54;87.52;98366.27;1649898;84;21380;-60
2021/01/24 08:07:11;;;;;;;23.63;11.30;;;;;;;5.58;87.50;98367.40;1656023;84;21197;-59
2021/01/24 08:09:39;;;;;;;20.63;12.57;;;;;;;5.62;87.44;98372.95;1654605;84;22318;-60
2021/01/24 08:12:09;;;;;;;27.17;14.47;;;;;;;5.66;87.38;98377.22;1628906;85;21257;-60
2021/01/24 08:14:37;;;;;;;28.33;15.37;;;;;;;5.66;87.37;98375.89;1650864;84;21230;-59
2021/01/24 08:17:08;;;;;;;20.90;12.73;;;;;;;5.67;87.31;98369.61;1655098;84;21176;-60
2021/01/24 08:19:36;;;;;;;25.80;13.90;;;;;;;5.69;87.29;98369.53;1616004;84;22326;-60
2021/01/24 08:22:03;;;;;;;27.47;12.70;;;;;;;5.69;87.22;98367.73;1654803;84;21349;-59
2021/01/24 08:24:30;;;;;;;24.87;11.87;;;;;;;5.73;87.27;98360.88;1656070;84;21265;-59
2021/01/24 08:26:58;;;;;;;25.13;13.10;;;;;;;5.74;87.28;98350.13;1645620;84;21226;-59
2021/01/24 08:29:30;;;;;;;29.17;12.13;;;;;;;5.76;87.29;98356.27;1628205;86;21605;-59
2021/01/24 08:31:59;;;;;;;27.73;13.57;;;;;;;5.79;87.28;98347.20;1648438;84;21514;-60
2021/01/24 08:34:27;;;;;;;25.37;11.90;;;;;;;5.81;87.25;98352.88;1623880;85;21120;-59
2021/01/24 08:36:54;;;;;;;23.60;11.30;;;;;;;5.85;87.21;98350.92;1652658;85;21154;-59
2021/01/24 08:39:23;;;;;;;21.77;12.33;;;;;;;5.87;87.15;98345.88;1626527;85;21198;-60
2021/01/24 08:41:52;;;;;;;26.60;14.30;;;;;;;5.90;87.12;98356.45;1653346;85;21144;-59
2021/01/24 08:44:20;;;;;;;24.13;12.70;;;;;;;5.91;87.08;98352.84;1648378;84;21670;-60
2021/01/24 08:46:52;;;;;;;18.87;10.17;;;;;;;5.92;87.03;98349.70;1647031;84;21403;-60
2021/01/24 08:49:25;;;;;;;29.57;12.30;;;;;;;5.94;86.99;98353.16;1644709;84;21270;-59
2021/01/24 08:51:55;;;;;;;21.60;10.90;;;;;;;5.94;86.94;98348.68;1643070;84;21203;-61
2021/01/24 08:54:30;;;;;;;19.83;9.73;;;;;;;5.96;86.94;98351.25;1645796;84;21238;-59
2021/01/24 08:57:14;;;;;;;17.67;10.47;;;;;;;5.97;86.96;98348.50;1646434;85;21568;-59
2021/01/24 08:59:54;;;;;;;24.90;10.53;;;;;;;5.99;86.95;98354.64;1639069;84;21399;-59
2021/01/24 09:02:34;;;;;;;24.73;10.03;;;;;;;6.00;86.93;98353.70;1648797;84;21389;-59
2021/01/24 09:05:03;;;;;;;26.70;9.80;;;;;;;6.01;86.89;98351.42;1648294;85;21131;-59
2021/01/24 09:07:42;;;;;;;24.27;9.57;;;;;;;6.03;86.84;98352.69;1645455;85;21198;-59
2021/01/24 09:10:23;;;;;;;19.10;8.60;;;;;;;6.05;86.84;98345.42;1651379;85;21222;-60
2021/01/24 09:12:55;;;;;;;18.20;8.70;;;;;;;6.08;86.84;98336.80;1644072;84;22394;-58
2021/01/24 09:15:24;;;;;;;17.23;8.57;;;;;;;6.13;86.80;98326.32;1640417;85;21215;-59
2021/01/24 09:17:53;;;;;;;20.67;10.80;;;;;;;6.15;86.73;98331.98;1645901;84;21241;-60
2021/01/24 09:20:21;;;;;;;20.10;9.90;;;;;;;6.16;86.69;98331.05;1613354;86;21225;-60
2021/01/24 09:22:49;;;;;;;16.23;8.27;;;;;;;6.17;86.64;98323.89;1623818;86;21139;-59
2021/01/24 09:25:17;;;;;;;13.57;7.47;;;;;;;6.18;86.60;98326.49;1616057;86;22198;-59
2021/01/24 09:27:44;;;;;;;14.97;6.10;;;;;;;6.21;86.59;98325.47;1651038;84;21202;-60
2021/01/24 09:30:14;;;;;;;15.47;7.53;;;;;;;6.23;86.58;98327.09;1644751;84;21644;-60
2021/01/24 09:32:43;;;;;;;13.00;6.37;;;;;;;6.26;86.55;98318.93;1650801;84;21612;-59
2021/01/24 09:35:10;;;;;;;15.43;6.63;;;;;;;6.30;86.51;98316.94;1650080;84;21574;-59
2021/01/24 09:37:38;;;;;;;12.43;6.50;;;;;;;6.31;86.42;98307.51;1647568;84;21815;-60
2021/01/24 09:40:06;;;;;;;20.90;6.50;;;;;;;6.35;86.44;98314.90;1646299;84;21235;-60
2021/01/24 09:42:34;;;;;;;8.97;4.97;;;;;;;6.39;86.41;98305.28;1653647;84;21162;-59
2021/01/24 09:45:02;;;;;;;13.17;6.77;;;;;;;6.44;86.33;98310.39;1651329;84;21131;-60
2021/01/24 09:47:30;;;;;;;9.70;5.00;;;;;;;6.46;86.20;98301.83;1651252;84;21230;-60
2021/01/24 09:49:57;;;;;;;12.10;4.87;;;;;;;6.50;86.15;98302.03;1648871;84;21291;-60
2021/01/24 09:52:25;;;;;;;16.30;5.53;;;;;;;6.52;86.09;98296.61;1645526;84;21218;-60
2021/01/24 09:54:52;;;;;;;9.97;4.23;;;;;;;6.53;86.05;98295.66;1646462;84;21234;-59
2021/01/24 09:57:19;;;;;;;14.20;4.93;;;;;;;6.56;86.02;98295.48;1645252;84;21221;-60
2021/01/24 09:59:46;;;;;;;8.50;4.87;;;;;;;6.59;85.97;98297.52;1645961;84;21721;-59
2021/01/24 10:02:13;;;;;;;13.33;5.93;;;;;;;6.63;85.90;98299.56;1649723;84;21673;-60
2021/01/24 10:04:42;;;;;;;19.60;6.43;;;;;;;6.65;85.84;98300.31;1651623;84;21139;-61
2021/01/24 10:07:09;;;;;;;11.00;5.07;;;;;;;6.66;85.79;98292.22;1657099;84;21218;-60
2021/01/24 10:09:36;;;;;;;18.13;5.13;;;;;;;6.69;85.70;98288.05;1649049;84;21245;-59
2021/01/24 10:12:06;;;;;;;8.07;3.17;;;;;;;6.71;85.66;98287.50;1644583;85;21227;-59
2021/01/24 10:14:33;;;;;;;11.80;3.63;;;;;;;6.73;85.64;98278.89;1652545;84;21232;-60
2021/01/24 10:17:00;;;;;;;8.77;4.83;;;;;;;6.76;85.58;98279.20;1647896;85;21226;-59
2021/01/24 10:19:28;;;;;;;11.87;3.90;;;;;;;6.79;85.47;98288.41;1645532;85;21270;-60
2021/01/24 10:21:55;;;;;;;8.63;2.70;;;;;;;6.81;85.38;98280.66;1645053;84;21263;-59
2021/01/24 10:24:23;;;;;;;9.93;3.53;;;;;;;6.84;85.29;98274.28;1645773;84;21242;-60
2021/01/24 10:26:50;;;;;;;12.00;4.73;;;;;;;6.87;85.23;98276.80;1648603;84;21938;-60
2021/01/24 10:29:18;;;;;;;12.20;4.43;;;;;;;6.90;85.17;98275.73;1649813;85;21237;-60
2021/01/24 10:31:45;;;;;;;12.23;4.20;;;;;;;6.92;85.06;98279.20;1650286;84;21208;-59
2021/01/24 10:34:12;;;;;;;11.83;3.97;;;;;;;6.93;84.98;98279.11;1655778;84;21180;-58
2021/01/24 10:36:40;;;;;;;8.53;4.13;;;;;;;6.95;84.93;98278.56;1656922;86;21221;-62
2021/01/24 10:39:07;;;;;;;13.80;3.67;;;;;;;6.98;84.90;98278.84;1630160;85;21276;-60
2021/01/24 10:41:34;;;;;;;8.47;3.40;;;;;;;7.01;84.84;98276.00;1653032;84;21247;-60
2021/01/24 10:44:01;;;;;;;10.53;3.57;;;;;;;7.03;84.73;98270.95;1654219;84;22028;-58
2021/01/24 10:46:30;;;;;;;9.30;3.57;;;;;;;7.06;84.67;98263.23;1658073;84;21521;-58
2021/01/24 10:48:59;;;;;;;11.03;3.33;;;;;;;7.08;84.58;98268.87;1655368;84;21147;-60
2021/01/24 10:51:26;;;;;;;14.50;4.27;;;;;;;7.10;84.49;98259.42;1658582;84;22244;-60
2021/01/24 10:53:54;;;;;;;12.17;5.63;;;;;;;7.13;84.45;98254.77;1653130;84;21170;-59
2021/01/24 10:56:25;;;;;;;10.67;3.80;;;;;;;7.15;84.38;98250.16;1625261;85;21155;-60
2021/01/24 10:58:52;;;;;;;7.17;2.90;;;;;;;7.15;84.33;98244.81;1610688;86;21199;-59
2021/01/24 11:01:20;;;;;;;6.43;3.40;;;;;;;7.18;84.28;98245.98;1654338;85;21138;-59
2021/01/24 11:03:47;;;;;;;9.40;2.87;;;;;;;7.21;84.29;98251.17;1652199;84;21385;-59
2021/01/24 11:06:14;;;;;;;9.50;3.30;;;;;;;7.24;84.28;98252.78;1654803;84;21511;-60
2021/01/24 11:08:42;;;;;;;9.17;2.77;;;;;;;7.27;84.21;98247.26;1620559;86;21187;-59
2021/01/24 11:11:09;;;;;;;9.07;4.57;;;;;;;7.30;84.17;98245.75;1651689;84;21147;-60
2021/01/24 11:13:36;;;;;;;14.83;7.20;;;;;;;7.33;84.06;98237.52;1654029;84;21334;-60
2021/01/24 11:16:04;;;;;;;18.43;12.43;;;;;;;7.35;83.93;98237.44;1654735;84;21740;-60
2021/01/24 11:18:33;;;;;;;33.37;20.97;;;;;;;7.36;83.91;98232.47;1646485;84;21151;-60
2021/01/24 11:21:02;;;;;;;17.60;10.33;;;;;;;7.38;83.87;98228.77;1649190;84;21156;-59
2021/01/24 11:23:29;;;;;;;33.30;19.77;;;;;;;7.40;83.86;98221.48;1658352;84;21744;-61
2021/01/24 11:25:56;;;;;;;79.67;46.40;;;;;;;7.44;83.86;98223.03;1659030;85;21133;-60
2021/01/24 11:28:24;;;;;;;18.87;8.93;;;;;;;7.49;83.84;98223.61;1653687;84;21977;-61
2021/01/24 11:30:51;;;;;;;14.45;9.18;;;;;;;7.53;83.68;98218.94;1662902;84;21222;-60
2021/01/24 11:33:18;;;;;;;15.63;9.27;;;;;;;7.57;83.58;98217.82;1662712;84;21253;-60
2021/01/24 11:35:47;;;;;;;14.15;7.30;;;;;;;7.62;83.42;98224.22;1664781;84;21555;-59
2021/01/24 11:38:14;;;;;;;8.30;3.43;;;;;;;7.65;83.27;98201.28;1666217;84;21214;-59
2021/01/24 11:40:42;;;;;;;12.37;8.23;;;;;;;7.66;83.16;98204.31;1663767;84;21719;-60
2021/01/24 11:43:09;;;;;;;6.23;3.73;;;;;;;7.67;82.97;98206.91;1670890;84;21602;-62
2021/01/24 11:45:36;;;;;;;9.20;5.03;;;;;;;7.69;82.84;98210.84;1664777;84;21232;-59
2021/01/24 11:48:04;;;;;;;7.97;4.10;;;;;;;7.71;82.81;98195.06;1665015;84;21762;-60
2021/01/24 11:50:31;;;;;;;4.97;1.97;;;;;;;7.74;82.68;98188.16;1665594;84;21257;-61